createdAt,value
2023-05-23T00:02:25.689Z,17.00
2023-05-23T00:04:58.520Z,17.00
2023-05-23T00:07:27.213Z,17.00
2023-05-23T00:09:55.150Z,17.00
2023-05-23T00:12:24.547Z,16.90
2023-05-23T00:14:53.621Z,17.00
2023-05-23T00:17:25.453Z,16.90
2023-05-23T00:19:55.978Z,16.90
2023-05-23T00:22:24.077Z,16.90
2023-05-23T00:24:52.009Z,16.90
2023-05-23T00:27:19.965Z,16.90
2023-05-23T00:29:49.258Z,16.70
2023-05-23T00:32:17.252Z,16.70
2023-05-23T00:34:45.503Z,16.70
2023-05-23T00:37:13.462Z,16.70
2023-05-23T00:39:41.644Z,16.80
2023-05-23T00:42:10.092Z,16.70
2023-05-23T00:44:38.072Z,16.70
2023-05-23T00:47:09.415Z,16.70
2023-05-23T00:49:37.931Z,16.60
2023-05-23T00:52:06.994Z,16.60
2023-05-23T00:54:37.747Z,16.60
2023-05-23T00:57:06.709Z,16.60
2023-05-23T00:59:37.398Z,16.50
2023-05-23T01:02:08.140Z,16.50
2023-05-23T01:04:37.322Z,16.50
2023-05-23T01:07:05.586Z,16.60
2023-05-23T01:09:34.078Z,16.60
2023-05-23T01:12:20.316Z,16.60
2023-05-23T01:15:06.450Z,16.60
2023-05-23T01:17:45.608Z,16.70
2023-05-23T01:20:20.388Z,16.70
2023-05-23T01:23:12.821Z,16.60
2023-05-23T01:26:14.990Z,16.60
2023-05-23T01:28:48.159Z,16.50
2023-05-23T01:31:18.177Z,16.50
2023-05-23T01:33:47.674Z,16.40
2023-05-23T01:36:16.802Z,16.40
2023-05-23T01:38:45.940Z,16.40
2023-05-23T01:41:13.894Z,16.30
2023-05-23T01:43:41.988Z,16.40
2023-05-23T01:46:12.757Z,16.50
2023-05-23T01:48:42.291Z,16.50
2023-05-23T01:51:10.509Z,16.40
2023-05-23T01:53:38.793Z,16.40
2023-05-23T01:56:07.328Z,16.30
2023-05-23T01:58:35.811Z,16.20
2023-05-23T02:01:04.141Z,16.20
2023-05-23T02:03:33.801Z,16.10
2023-05-23T02:06:01.752Z,16.00
2023-05-23T02:08:29.681Z,15.90
2023-05-23T02:10:57.644Z,15.90
2023-05-23T02:13:25.574Z,15.90
2023-05-23T02:15:53.537Z,15.80
2023-05-23T02:18:22.622Z,15.70
2023-05-23T02:20:53.273Z,15.70
2023-05-23T02:23:21.489Z,15.60
2023-05-23T02:25:49.605Z,15.50
2023-05-23T02:28:17.648Z,15.50
2023-05-23T02:30:46.157Z,15.50
2023-05-23T02:33:14.485Z,15.40
2023-05-23T02:35:42.773Z,15.40
2023-05-23T02:38:13.121Z,15.40
2023-05-23T02:40:42.867Z,15.60
2023-05-23T02:43:11.148Z,15.70
2023-05-23T02:45:39.332Z,15.70
2023-05-23T02:48:07.852Z,15.70
2023-05-23T02:50:36.008Z,15.70
2023-05-23T02:53:04.287Z,15.60
2023-05-23T02:55:33.546Z,15.50
2023-05-23T02:58:01.494Z,15.60
2023-05-23T03:00:29.420Z,15.60
2023-05-23T03:02:58.904Z,15.60
2023-05-23T03:05:27.114Z,15.40
2023-05-23T03:07:55.411Z,15.40
2023-05-23T03:10:23.515Z,15.40
2023-05-23T03:12:52.857Z,15.40
2023-05-23T03:15:21.262Z,15.40
2023-05-23T03:17:49.710Z,15.30
2023-05-23T03:20:18.143Z,15.20
2023-05-23T03:22:46.240Z,15.30
2023-05-23T03:25:16.714Z,15.20
2023-05-23T03:27:44.777Z,15.20
2023-05-23T03:30:15.168Z,15.10
2023-05-23T03:32:43.454Z,15.10
2023-05-23T03:35:11.747Z,15.10
2023-05-23T03:37:40.573Z,15.10
2023-05-23T03:40:10.323Z,15.10
2023-05-23T03:42:40.829Z,15.10
2023-05-23T03:45:12.395Z,15.10
2023-05-23T03:47:43.047Z,15.10
2023-05-23T03:50:12.286Z,15.20
2023-05-23T03:52:40.387Z,15.20
2023-05-23T03:55:11.369Z,15.20
2023-05-23T03:57:39.807Z,15.30
2023-05-23T04:00:12.196Z,15.50
2023-05-23T04:02:47.275Z,15.50
2023-05-23T04:05:19.431Z,15.70
2023-05-23T04:07:50.283Z,15.80
2023-05-23T04:10:18.695Z,15.90
2023-05-23T04:12:48.115Z,16.00
2023-05-23T04:15:21.572Z,16.10
2023-05-23T04:18:07.546Z,16.10
2023-05-23T04:20:36.396Z,16.10
2023-05-23T04:23:05.645Z,16.00
2023-05-23T04:25:36.662Z,15.90
2023-05-23T04:28:10.476Z,15.80
2023-05-23T04:30:38.436Z,15.70
2023-05-23T04:33:07.899Z,15.60
2023-05-23T04:35:39.237Z,15.50
2023-05-23T04:38:07.722Z,15.40
2023-05-23T04:40:35.902Z,15.40
2023-05-23T04:43:18.054Z,15.40
2023-05-23T04:45:58.751Z,15.30
2023-05-23T04:48:36.225Z,15.20
2023-05-23T04:51:07.758Z,15.20
2023-05-23T04:53:41.093Z,15.10
2023-05-23T04:56:10.827Z,15.10
2023-05-23T04:58:40.584Z,15.10
2023-05-23T05:01:10.267Z,15.20
2023-05-23T05:03:39.646Z,15.30
2023-05-23T05:06:08.493Z,15.50
2023-05-23T05:08:37.700Z,15.70
2023-05-23T05:11:06.282Z,16.20
2023-05-23T05:13:34.979Z,17.10
2023-05-23T05:16:03.121Z,18.00
2023-05-23T05:18:31.387Z,18.70
2023-05-23T05:21:02.177Z,19.40
2023-05-23T05:23:33.314Z,19.90
2023-05-23T05:26:01.638Z,20.40
2023-05-23T05:28:29.722Z,21.00
2023-05-23T05:30:57.728Z,21.70
2023-05-23T05:33:26.056Z,22.60
2023-05-23T05:36:08.936Z,23.40
2023-05-23T05:38:37.120Z,24.20
2023-05-23T05:41:07.350Z,24.60
2023-05-23T05:43:40.288Z,24.80
2023-05-23T05:46:08.274Z,25.00
2023-05-23T05:48:36.236Z,25.20
2023-05-23T05:51:09.438Z,24.30
2023-05-23T05:53:37.739Z,23.40
2023-05-23T05:56:09.095Z,22.50
2023-05-23T05:58:37.324Z,21.50
2023-05-23T06:01:09.739Z,20.90
2023-05-23T06:03:38.165Z,20.50
2023-05-23T06:06:06.945Z,20.10
2023-05-23T06:08:36.785Z,19.60
2023-05-23T06:11:04.801Z,19.20
2023-05-23T06:13:32.924Z,18.90
2023-05-23T06:16:00.908Z,18.60
2023-05-23T06:18:29.177Z,18.40
2023-05-23T06:20:57.686Z,18.20
2023-05-23T06:23:25.710Z,18.10
2023-05-23T06:25:54.989Z,17.90
2023-05-23T06:28:22.927Z,17.70
2023-05-23T06:30:50.975Z,17.70
2023-05-23T06:33:18.894Z,17.60
2023-05-23T06:35:46.881Z,17.60
2023-05-23T06:38:17.019Z,17.60
2023-05-23T06:40:45.746Z,17.60
2023-05-23T06:43:16.184Z,17.60
2023-05-23T06:45:53.052Z,17.50
2023-05-23T06:48:21.179Z,17.50
2023-05-23T06:50:50.819Z,17.60
2023-05-23T06:53:19.541Z,17.60
2023-05-23T06:55:49.407Z,17.70
2023-05-23T06:58:25.145Z,17.90
2023-05-23T07:00:53.441Z,18.00
2023-05-23T07:03:27.912Z,18.30
2023-05-23T07:06:00.594Z,18.80
2023-05-23T07:08:29.067Z,19.00
2023-05-23T07:11:00.530Z,19.30
2023-05-23T07:13:47.872Z,19.30
2023-05-23T07:16:22.894Z,19.10
2023-05-23T07:18:59.458Z,18.90
2023-05-23T07:21:27.628Z,18.90
2023-05-23T07:23:55.592Z,18.80
2023-05-23T07:26:24.233Z,18.80
2023-05-23T07:28:57.451Z,18.60
2023-05-23T07:31:25.973Z,18.40
2023-05-23T07:33:56.830Z,18.20
2023-05-23T07:36:34.022Z,18.10
2023-05-23T07:39:02.651Z,17.90
2023-05-23T07:41:30.862Z,17.80
2023-05-23T07:44:00.353Z,17.90
2023-05-23T07:46:28.380Z,17.90
2023-05-23T07:48:57.110Z,17.70
2023-05-23T07:51:25.459Z,17.50
2023-05-23T07:53:54.185Z,17.50
2023-05-23T07:56:24.252Z,17.60
2023-05-23T07:58:52.193Z,17.50
2023-05-23T08:01:22.203Z,17.50
2023-05-23T08:04:00.523Z,17.40
2023-05-23T08:07:00.931Z,17.30
2023-05-23T08:09:53.566Z,17.30
2023-05-23T08:12:22.379Z,17.40
2023-05-23T08:14:56.479Z,17.50
2023-05-23T08:17:28.054Z,17.70
2023-05-23T08:19:56.325Z,17.90
2023-05-23T08:22:24.352Z,18.10
2023-05-23T08:24:52.300Z,18.20
2023-05-23T08:27:20.774Z,18.30
2023-05-23T08:29:53.228Z,18.30
2023-05-23T08:32:21.537Z,18.20
2023-05-23T08:34:51.067Z,18.00
2023-05-23T08:37:20.185Z,17.90
2023-05-23T08:39:48.472Z,17.80
2023-05-23T08:42:37.759Z,17.70
2023-05-23T08:45:10.134Z,17.50
2023-05-23T08:47:39.614Z,17.40
2023-05-23T08:50:12.962Z,17.20
2023-05-23T08:52:57.202Z,17.10
2023-05-23T08:55:27.767Z,17.80
2023-05-23T08:57:59.285Z,17.00
2023-05-23T09:00:50.125Z,16.90
2023-05-23T09:03:19.717Z,16.90
2023-05-23T09:05:59.152Z,16.80
2023-05-23T09:08:28.050Z,16.80
2023-05-23T09:10:59.483Z,16.80
2023-05-23T09:13:28.507Z,16.60
2023-05-23T09:16:04.074Z,16.50
2023-05-23T09:18:40.623Z,16.40
2023-05-23T09:21:12.027Z,16.30
2023-05-23T09:23:46.964Z,16.10
2023-05-23T09:26:15.910Z,16.10
2023-05-23T09:28:45.708Z,16.10
2023-05-23T09:31:14.553Z,16.00
2023-05-23T09:33:47.177Z,15.90
2023-05-23T09:36:18.012Z,15.90
2023-05-23T09:38:48.784Z,15.90
2023-05-23T09:41:16.897Z,15.80
2023-05-23T09:43:52.150Z,15.70
2023-05-23T09:46:21.448Z,15.60
2023-05-23T09:48:51.762Z,15.50
2023-05-23T09:51:23.926Z,15.50
2023-05-23T09:53:53.121Z,15.40
2023-05-23T09:56:23.506Z,15.40
2023-05-23T09:58:54.488Z,15.40
2023-05-23T10:01:27.809Z,15.30
2023-05-23T10:03:59.986Z,15.30
2023-05-23T10:06:40.185Z,15.20
2023-05-23T10:09:15.268Z,15.20
2023-05-23T10:12:40.411Z,15.10
2023-05-23T10:15:12.227Z,15.00
2023-05-23T10:17:55.177Z,14.90
2023-05-23T10:20:27.214Z,14.80
2023-05-23T10:22:58.134Z,14.70
2023-05-23T10:25:26.723Z,14.60
2023-05-23T10:27:59.052Z,14.50
2023-05-23T10:30:28.545Z,14.40
2023-05-23T10:32:58.561Z,14.30
2023-05-23T10:35:42.746Z,14.30
2023-05-23T10:38:29.265Z,14.20
2023-05-23T10:41:10.924Z,14.10
2023-05-23T10:43:50.042Z,14.10
2023-05-23T10:46:21.026Z,14.00
2023-05-23T10:48:49.450Z,14.00
2023-05-23T10:51:17.717Z,14.00
2023-05-23T10:53:54.191Z,14.00
2023-05-23T10:56:24.295Z,14.10
2023-05-23T10:58:55.873Z,14.10
2023-05-23T11:01:24.874Z,14.10
2023-05-23T11:03:56.001Z,14.00
2023-05-23T11:06:33.641Z,14.10
2023-05-23T11:09:11.513Z,14.20
2023-05-23T11:12:06.001Z,14.20
2023-05-23T11:14:55.989Z,14.20
2023-05-23T11:17:34.652Z,14.20
2023-05-23T11:20:07.112Z,14.20
2023-05-23T11:22:36.408Z,14.20
2023-05-23T11:25:10.794Z,14.10
2023-05-23T11:27:42.028Z,14.00
2023-05-23T11:30:13.526Z,13.90
2023-05-23T11:32:43.065Z,13.80
2023-05-23T11:35:12.417Z,13.80
2023-05-23T11:37:40.685Z,13.80
2023-05-23T11:40:31.672Z,13.70
2023-05-23T11:43:01.111Z,13.60
2023-05-23T11:45:31.737Z,13.60
2023-05-23T11:48:00.437Z,13.70
2023-05-23T11:50:28.391Z,13.60
2023-05-23T11:52:57.049Z,13.50
2023-05-23T11:55:25.503Z,13.50
2023-05-23T11:57:57.764Z,13.40
2023-05-23T12:00:26.016Z,13.30
2023-05-23T12:02:54.048Z,13.30
2023-05-23T12:05:21.987Z,13.20
2023-05-23T12:07:50.757Z,13.10
2023-05-23T12:10:21.695Z,13.00
2023-05-23T12:12:52.626Z,12.90
2023-05-23T12:15:27.960Z,12.70
2023-05-23T12:17:57.216Z,12.60
2023-05-23T12:20:27.268Z,12.50
2023-05-23T12:22:57.763Z,12.40
2023-05-23T12:25:26.552Z,12.40
2023-05-23T12:27:56.240Z,12.40
2023-05-23T12:30:25.551Z,12.40
2023-05-23T12:32:53.731Z,12.40
2023-05-23T12:35:21.664Z,12.40
2023-05-23T12:37:50.182Z,12.40
2023-05-23T12:40:20.039Z,12.50
2023-05-23T12:42:53.444Z,12.50
2023-05-23T12:45:23.655Z,12.50
2023-05-23T12:47:54.335Z,12.60
2023-05-23T12:50:22.710Z,12.60
2023-05-23T12:52:51.256Z,12.60
2023-05-23T12:55:19.505Z,12.50
2023-05-23T12:57:48.182Z,12.50
2023-05-23T13:00:17.301Z,12.60
2023-05-23T13:02:49.234Z,12.60
2023-05-23T13:05:18.873Z,12.70
2023-05-23T13:07:46.846Z,12.60
2023-05-23T13:10:14.852Z,12.60
2023-05-23T13:12:43.743Z,12.40
2023-05-23T13:15:12.873Z,12.30
2023-05-23T13:17:40.992Z,12.20
2023-05-23T13:20:12.204Z,12.20
2023-05-23T13:22:41.717Z,12.20
2023-05-23T13:25:11.113Z,12.10
2023-05-23T13:27:39.073Z,12.10
2023-05-23T13:30:09.565Z,12.00
2023-05-23T13:32:37.514Z,12.00
2023-05-23T13:35:06.748Z,12.00
2023-05-23T13:37:34.865Z,11.90
2023-05-23T13:40:06.595Z,11.80
2023-05-23T13:42:36.235Z,11.80
2023-05-23T13:45:04.925Z,11.80
2023-05-23T13:47:32.910Z,11.80
2023-05-23T13:50:01.456Z,11.80
2023-05-23T13:52:29.470Z,11.90
2023-05-23T13:54:57.895Z,12.00
2023-05-23T13:57:27.155Z,12.00
2023-05-23T13:59:55.364Z,12.10
2023-05-23T14:02:23.616Z,12.20
2023-05-23T14:04:52.004Z,12.30
2023-05-23T14:07:20.664Z,12.20
2023-05-23T14:09:48.885Z,12.20
2023-05-23T14:12:16.901Z,12.20
2023-05-23T14:14:46.204Z,12.10
2023-05-23T14:17:17.576Z,12.00
2023-05-23T14:19:46.739Z,12.00
2023-05-23T14:22:18.404Z,12.00
2023-05-23T14:24:46.333Z,12.10
2023-05-23T14:27:14.701Z,12.40
2023-05-23T14:29:46.322Z,12.50
2023-05-23T14:32:15.903Z,12.80
2023-05-23T14:34:43.954Z,13.00
2023-05-23T14:37:11.943Z,13.20
2023-05-23T14:39:41.525Z,13.20
2023-05-23T14:42:09.711Z,13.30
2023-05-23T14:44:37.646Z,13.20
2023-05-23T14:47:06.318Z,13.00
2023-05-23T14:49:35.582Z,12.90
2023-05-23T14:52:03.579Z,12.80
2023-05-23T14:54:31.831Z,12.70
2023-05-23T14:57:00.061Z,12.60
2023-05-23T14:59:28.851Z,12.60
2023-05-23T15:01:56.842Z,12.70
2023-05-23T15:04:25.466Z,12.90
2023-05-23T15:06:54.877Z,13.20
2023-05-23T15:09:22.802Z,13.50
2023-05-23T15:11:50.863Z,13.60
2023-05-23T15:14:18.863Z,13.80
2023-05-23T15:16:48.810Z,13.80
2023-05-23T15:19:17.274Z,13.80
2023-05-23T15:24:17.905Z,13.80
2023-05-23T15:26:45.822Z,13.80
2023-05-23T15:29:15.423Z,13.80
2023-05-23T15:31:44.206Z,13.70
2023-05-23T15:34:12.517Z,13.60
2023-05-23T15:36:41.846Z,13.60
2023-05-23T15:39:09.813Z,13.70
2023-05-23T15:41:39.155Z,13.80
2023-05-23T15:44:07.229Z,13.80
2023-05-23T15:46:35.229Z,13.70
2023-05-23T15:49:10.636Z,13.80
2023-05-23T15:51:49.480Z,13.90
2023-05-23T15:54:17.540Z,14.20
2023-05-23T15:56:46.756Z,14.30
2023-05-23T15:59:14.733Z,14.40
2023-05-23T16:01:42.823Z,14.30
2023-05-23T16:04:11.213Z,14.20
2023-05-23T16:06:40.389Z,14.10
2023-05-23T16:09:08.399Z,14.10
2023-05-23T16:11:36.364Z,14.10
2023-05-23T16:14:06.598Z,13.90
2023-05-23T16:16:35.134Z,13.80
2023-05-23T16:19:04.195Z,13.70
2023-05-23T16:21:32.295Z,13.70
2023-05-23T16:24:00.695Z,13.70
2023-05-23T16:26:28.783Z,13.70
2023-05-23T16:28:56.733Z,13.60
2023-05-23T16:31:29.612Z,13.60
2023-05-23T16:33:58.603Z,13.60
2023-05-23T16:36:26.864Z,13.60
2023-05-23T16:38:55.800Z,13.70
2023-05-23T16:41:23.860Z,13.70
2023-05-23T16:43:52.130Z,13.70
2023-05-23T16:46:22.202Z,13.70
2023-05-23T16:48:51.682Z,13.80
2023-05-23T16:51:19.642Z,13.80
2023-05-23T16:53:47.913Z,13.70
2023-05-23T16:56:15.955Z,13.70
2023-05-23T16:58:44.213Z,13.60
2023-05-23T17:01:12.181Z,13.60
2023-05-23T17:03:41.389Z,13.60
2023-05-23T17:06:10.899Z,13.50
2023-05-23T17:08:39.212Z,13.50
2023-05-23T17:11:07.503Z,13.50
2023-05-23T17:13:35.751Z,13.50
2023-05-23T17:16:05.465Z,13.40
2023-05-23T17:18:33.488Z,13.40
2023-05-23T17:21:01.475Z,13.40
2023-05-23T17:23:30.886Z,13.20
2023-05-23T17:25:59.137Z,13.00
2023-05-23T17:28:27.092Z,13.00
2023-05-23T17:30:55.483Z,12.90
2023-05-23T17:33:23.406Z,12.80
2023-05-23T17:35:51.315Z,12.70
2023-05-23T17:38:19.493Z,12.70
2023-05-23T17:40:49.139Z,12.60
2023-05-23T17:43:17.255Z,12.50
2023-05-23T17:45:45.224Z,12.50
2023-05-23T17:48:13.314Z,12.40
2023-05-23T17:50:41.796Z,12.40
2023-05-23T17:53:09.902Z,12.40
2023-05-23T17:55:37.804Z,12.30
2023-05-23T17:58:07.254Z,12.30
2023-05-23T18:00:35.345Z,12.30
2023-05-23T18:03:06.283Z,12.20
2023-05-23T18:05:34.567Z,12.20
2023-05-23T18:08:02.656Z,12.20
2023-05-23T18:10:30.591Z,12.20
2023-05-23T18:12:58.499Z,12.20
2023-05-23T18:15:27.958Z,12.10
2023-05-23T18:17:57.373Z,12.10
2023-05-23T18:20:25.660Z,12.10
2023-05-23T18:22:54.614Z,12.10
2023-05-23T18:25:27.342Z,12.00
2023-05-23T18:27:56.516Z,12.10
2023-05-23T18:30:24.550Z,12.00
2023-05-23T18:32:53.859Z,12.00
2023-05-23T18:35:22.985Z,12.00
2023-05-23T18:37:50.921Z,12.00
2023-05-23T18:40:19.357Z,11.90
2023-05-23T18:42:47.408Z,11.90
2023-05-23T18:45:15.355Z,11.90
2023-05-23T18:47:44.658Z,11.90
2023-05-23T18:50:14.563Z,11.90
2023-05-23T18:52:43.637Z,11.90
2023-05-23T18:55:12.121Z,11.80
2023-05-23T18:57:40.159Z,11.80
2023-05-23T19:00:09.956Z,11.80
2023-05-23T19:02:39.518Z,11.80
2023-05-23T19:05:08.675Z,11.70
2023-05-23T19:07:38.243Z,11.70
2023-05-23T19:10:07.564Z,11.60
2023-05-23T19:12:35.851Z,11.50
2023-05-23T19:15:04.440Z,11.50
2023-05-23T19:17:32.620Z,11.40
2023-05-23T19:20:00.647Z,11.40
2023-05-23T19:22:39.135Z,11.30
2023-05-23T19:25:14.113Z,11.30
2023-05-23T19:27:42.603Z,11.20
2023-05-23T19:30:12.260Z,11.20
2023-05-23T19:32:40.225Z,11.10
2023-05-23T19:35:09.178Z,11.10
2023-05-23T19:37:37.561Z,11.10
2023-05-23T19:40:07.369Z,11.00
2023-05-23T19:42:37.002Z,11.00
2023-05-23T19:45:06.599Z,10.90
2023-05-23T19:47:34.897Z,10.90
2023-05-23T19:50:03.119Z,10.80
2023-05-23T19:52:31.030Z,10.80
2023-05-23T19:55:00.613Z,10.80
2023-05-23T19:57:29.781Z,10.70
2023-05-23T19:59:59.430Z,10.70
2023-05-23T20:02:27.471Z,10.70
2023-05-23T20:04:55.764Z,10.60
2023-05-23T20:07:24.040Z,10.60
2023-05-23T20:09:52.138Z,10.50
2023-05-23T20:12:23.300Z,10.50
2023-05-23T20:14:51.232Z,10.50
2023-05-23T20:17:20.642Z,10.40
2023-05-23T20:19:49.015Z,10.40
2023-05-23T20:22:16.932Z,10.40
2023-05-23T20:24:44.931Z,10.30
2023-05-23T20:27:13.025Z,10.30
2023-05-23T20:29:41.278Z,10.20
2023-05-23T20:32:09.179Z,10.20
2023-05-23T20:34:38.762Z,10.20
2023-05-23T20:37:06.695Z,10.10
2023-05-23T20:39:34.901Z,10.10
2023-05-23T20:42:02.907Z,10.10
2023-05-23T20:44:31.720Z,10.10
2023-05-23T20:46:59.668Z,10.10
2023-05-23T20:49:27.764Z,10.10
2023-05-23T20:51:57.613Z,10.10
2023-05-23T20:54:25.563Z,10.00
2023-05-23T20:56:53.881Z,10.00
2023-05-23T20:59:21.996Z,10.00
2023-05-23T21:01:49.975Z,10.00
2023-05-23T21:04:18.935Z,10.00
2023-05-23T21:06:47.039Z,9.90
2023-05-23T21:09:17.036Z,9.90
2023-05-23T21:11:45.032Z,9.90
2023-05-23T21:14:13.863Z,9.90
2023-05-23T21:16:41.940Z,9.70
2023-05-23T21:19:09.968Z,9.70
2023-05-23T21:21:38.048Z,9.70
2023-05-23T21:24:06.486Z,9.60
2023-05-23T21:26:35.756Z,9.60
2023-05-23T21:29:03.679Z,9.60
2023-05-23T21:31:40.682Z,9.50
2023-05-23T21:34:22.522Z,9.50
2023-05-23T21:36:52.222Z,9.40
2023-05-23T21:39:20.541Z,9.30
2023-05-23T21:41:49.827Z,9.30
2023-05-23T21:44:18.838Z,9.20
2023-05-23T21:46:47.447Z,9.20
2023-05-23T21:49:15.723Z,9.10
2023-05-23T21:51:44.110Z,9.10
2023-05-23T21:54:12.218Z,9.10
2023-05-23T21:56:40.155Z,9.00
2023-05-23T21:59:09.615Z,9.00
2023-05-23T22:01:37.572Z,9.00
2023-05-23T22:04:05.836Z,9.00
2023-05-23T22:06:34.176Z,8.90
2023-05-23T22:09:02.128Z,8.90
2023-05-23T22:11:33.884Z,8.90
2023-05-23T22:14:02.667Z,8.90
2023-05-23T22:16:33.446Z,8.90
2023-05-23T22:19:02.042Z,8.80
2023-05-23T22:21:30.498Z,8.70
2023-05-23T22:23:58.806Z,8.70
2023-05-23T22:26:26.924Z,8.70
2023-05-23T22:28:55.024Z,8.70
2023-05-23T22:31:23.890Z,8.60
2023-05-23T22:33:53.515Z,8.60
2023-05-23T22:36:22.218Z,8.60
2023-05-23T22:38:50.537Z,8.60
2023-05-23T22:41:18.914Z,8.50
2023-05-23T22:43:47.351Z,8.40
2023-05-23T22:46:15.818Z,8.40
2023-05-23T22:48:44.890Z,8.40
2023-05-23T22:51:14.590Z,8.40
2023-05-23T22:53:43.237Z,8.40
2023-05-23T22:56:11.328Z,8.30
2023-05-23T22:58:39.391Z,8.30
2023-05-23T23:01:07.388Z,8.30
2023-05-23T23:03:35.784Z,8.30
2023-05-23T23:06:06.024Z,8.20
2023-05-23T23:08:35.456Z,8.20
2023-05-23T23:11:03.725Z,8.20
2023-05-23T23:13:32.750Z,8.20
2023-05-23T23:16:00.749Z,8.10
2023-05-23T23:18:28.682Z,8.10
2023-05-23T23:20:56.656Z,8.10
2023-05-23T23:23:24.708Z,8.10
2023-05-23T23:25:54.276Z,8.10
2023-05-23T23:28:22.364Z,8.00
2023-05-23T23:30:50.694Z,8.00
2023-05-23T23:33:18.618Z,8.00
2023-05-23T23:35:48.997Z,7.90
2023-05-23T23:38:17.290Z,7.90
2023-05-23T23:40:45.661Z,7.80
2023-05-23T23:43:15.139Z,7.90
2023-05-23T23:45:43.161Z,7.80
2023-05-23T23:48:11.325Z,7.80
2023-05-23T23:50:39.253Z,7.90
2023-05-23T23:53:08.030Z,7.80
2023-05-23T23:55:35.964Z,7.80
2023-05-23T23:58:03.876Z,7.80
